createdAt,value
2023-03-27T00:03:59.812Z,202.62
2023-03-27T00:07:59.723Z,201.32
2023-03-27T00:11:59.702Z,203.44
2023-03-27T00:15:59.677Z,205.14
2023-03-27T00:19:59.606Z,205.46
2023-03-27T00:23:59.573Z,202.31
2023-03-27T00:27:59.553Z,202.28
2023-03-27T00:31:59.529Z,204.12
2023-03-27T00:35:59.478Z,204.68
2023-03-27T00:39:59.829Z,201.97
2023-03-27T00:43:59.359Z,203.71
2023-03-27T00:47:59.516Z,206.49
2023-03-27T00:51:59.307Z,206.29
2023-03-27T00:55:59.288Z,203.19
2023-03-27T00:59:59.261Z,206.33
2023-03-27T01:03:59.180Z,204.72
2023-03-27T01:08:00.994Z,203.74
2023-03-27T01:11:59.300Z,205.79
2023-03-27T01:15:59.369Z,206.46
2023-03-27T01:19:59.341Z,206.91
2023-03-27T01:24:00.785Z,206.63
2023-03-27T01:27:59.405Z,202.04
2023-03-27T01:31:59.359Z,203.70
2023-03-27T01:35:59.438Z,206.16
2023-03-27T01:39:59.428Z,205.67
2023-03-27T01:43:59.448Z,202.73
2023-03-27T01:47:59.467Z,203.00
2023-03-27T01:51:59.490Z,205.55
2023-03-27T01:55:59.537Z,203.16
2023-03-27T02:00:17.320Z,204.13
2023-03-27T02:04:00.540Z,204.19
2023-03-27T02:07:59.876Z,205.82
2023-03-27T02:11:59.470Z,204.13
2023-03-27T02:15:59.510Z,206.80
2023-03-27T02:19:59.393Z,205.17
2023-03-27T02:23:59.307Z,203.24
2023-03-27T02:27:59.278Z,206.13
2023-03-27T02:31:59.361Z,204.86
2023-03-27T02:35:59.283Z,204.77
2023-03-27T02:39:59.290Z,206.47
2023-03-27T02:43:59.325Z,205.86
2023-03-27T02:47:59.393Z,200.87
2023-03-27T02:51:59.364Z,205.51
2023-03-27T02:55:59.402Z,203.81
2023-03-27T02:59:59.417Z,205.65
2023-03-27T03:03:59.453Z,205.45
2023-03-27T03:07:59.478Z,201.20
2023-03-27T03:11:59.596Z,201.81
2023-03-27T03:15:59.576Z,204.90
2023-03-27T03:19:59.671Z,201.73
2023-03-27T03:23:59.698Z,205.98
2023-03-27T03:27:59.717Z,204.27
2023-03-27T03:31:59.729Z,204.14
2023-03-27T03:35:59.832Z,203.94
2023-03-27T03:39:59.859Z,202.23
2023-03-27T03:43:59.879Z,204.06
2023-03-27T03:47:59.991Z,205.51
2023-03-27T03:52:03.574Z,205.74
2023-03-27T03:56:00.013Z,205.45
2023-03-27T03:59:59.938Z,206.14
2023-03-27T04:03:59.910Z,203.46
2023-03-27T04:07:59.841Z,185.48
2023-03-27T04:11:59.821Z,157.43
2023-03-27T04:15:59.836Z,144.32
2023-03-27T04:19:59.755Z,120.19
2023-03-27T04:23:59.848Z,106.47
2023-03-27T04:28:00.027Z,72.20
2023-03-27T04:32:00.136Z,83.49
2023-03-27T04:36:07.364Z,68.26
2023-03-27T04:40:01.245Z,75.65
2023-03-27T04:44:00.406Z,95.33
2023-03-27T04:48:00.333Z,104.75
2023-03-27T04:52:00.140Z,106.02
2023-03-27T04:56:00.140Z,103.73
2023-03-27T05:00:00.217Z,103.48
2023-03-27T05:04:00.328Z,106.49
2023-03-27T05:08:00.349Z,101.88
2023-03-27T05:12:00.422Z,101.35
2023-03-27T05:16:00.644Z,99.55
2023-03-27T05:20:00.696Z,101.89
2023-03-27T05:24:00.772Z,99.41
2023-03-27T05:28:01.036Z,100.34
2023-03-27T05:32:01.590Z,90.73
2023-03-27T05:36:01.186Z,90.08
2023-03-27T05:40:01.384Z,67.94
2023-03-27T05:44:01.454Z,82.25
2023-03-27T05:48:01.567Z,98.22
2023-03-27T05:52:01.680Z,97.33
2023-03-27T05:56:02.373Z,91.77
2023-03-27T06:00:01.937Z,100.56
2023-03-27T06:04:01.913Z,106.51
2023-03-27T06:08:01.868Z,113.47
2023-03-27T06:12:01.936Z,97.31
2023-03-27T06:16:01.932Z,97.31
2023-03-27T06:20:01.915Z,117.85
2023-03-27T06:24:01.888Z,142.91
2023-03-27T06:28:01.956Z,141.50
2023-03-27T06:32:01.914Z,132.73
2023-03-27T06:36:02.066Z,121.04
2023-03-27T06:40:02.293Z,66.57
2023-03-27T06:44:02.084Z,64.52
2023-03-27T06:48:16.930Z,122.75
2023-03-27T06:52:03.084Z,106.41
2023-03-27T06:56:02.083Z,119.31
2023-03-27T07:00:02.751Z,130.71
2023-03-27T07:04:02.073Z,121.57
2023-03-27T07:08:11.391Z,133.61
2023-03-27T07:12:02.923Z,137.93
2023-03-27T07:16:02.007Z,120.05
2023-03-27T07:20:02.100Z,147.07
2023-03-27T07:24:02.303Z,145.69
2023-03-27T07:28:03.702Z,144.72
2023-03-27T07:32:06.225Z,140.38
2023-03-27T07:36:03.235Z,120.39
2023-03-27T07:40:02.181Z,54.39
2023-03-27T07:44:02.117Z,60.39
2023-03-27T07:48:02.693Z,55.83
2023-03-27T07:52:02.276Z,80.92
2023-03-27T07:56:02.333Z,94.17
2023-03-27T08:00:02.323Z,92.82
2023-03-27T08:04:02.627Z,98.41
2023-03-27T08:08:02.273Z,101.51
2023-03-27T08:12:02.293Z,93.68
2023-03-27T08:16:02.341Z,96.39
2023-03-27T08:20:02.398Z,68.06
2023-03-27T08:24:02.494Z,28.19
2023-03-27T08:28:02.559Z,51.95
2023-03-27T08:32:02.679Z,49.36
2023-03-27T08:36:03.025Z,37.76
2023-03-27T08:40:03.058Z,66.05
2023-03-27T08:44:10.009Z,25.00
2023-03-27T08:48:03.163Z,46.25
2023-03-27T08:52:06.290Z,33.24
2023-03-27T08:56:02.702Z,45.94
2023-03-27T09:00:02.671Z,26.80
2023-03-27T09:04:02.802Z,24.37
2023-03-27T09:08:02.593Z,60.76
2023-03-27T09:12:02.609Z,67.40
2023-03-27T09:16:02.799Z,80.28
2023-03-27T09:20:02.971Z,93.73
2023-03-27T09:24:03.105Z,110.46
2023-03-27T09:28:03.263Z,110.92
2023-03-27T09:32:03.355Z,111.15
2023-03-27T09:36:03.569Z,25.47
2023-03-27T09:40:03.590Z,45.18
2023-03-27T09:44:03.595Z,81.69
2023-03-27T09:48:03.520Z,206.31
2023-03-27T09:52:03.485Z,221.12
2023-03-27T09:56:03.582Z,236.71
2023-03-27T10:00:03.475Z,248.72
2023-03-27T10:04:03.542Z,238.98
2023-03-27T10:08:03.392Z,243.68
2023-03-27T10:12:03.312Z,245.60
2023-03-27T10:16:03.341Z,246.09
2023-03-27T10:20:03.616Z,219.85
2023-03-27T10:24:03.240Z,246.23
2023-03-27T10:28:03.223Z,221.09
2023-03-27T10:32:03.590Z,144.46
2023-03-27T10:36:03.140Z,85.84
2023-03-27T10:40:03.135Z,58.89
2023-03-27T10:44:03.053Z,83.72
2023-03-27T10:48:03.137Z,72.14
2023-03-27T10:52:03.003Z,75.74
2023-03-27T10:56:02.952Z,97.52
2023-03-27T11:00:02.938Z,99.45
2023-03-27T11:04:02.866Z,93.27
2023-03-27T11:08:02.892Z,99.61
2023-03-27T11:12:02.804Z,99.70
2023-03-27T11:16:02.733Z,102.36
2023-03-27T11:20:02.679Z,96.66
2023-03-27T11:24:02.744Z,124.56
2023-03-27T11:28:02.638Z,117.05
2023-03-27T11:32:03.124Z,137.37
2023-03-27T11:36:02.744Z,140.22
2023-03-27T11:40:02.550Z,149.85
2023-03-27T11:44:02.455Z,157.14
2023-03-27T11:48:02.511Z,162.49
2023-03-27T11:52:02.399Z,165.51
2023-03-27T11:56:02.350Z,164.94
2023-03-27T12:00:02.313Z,169.20
2023-03-27T12:04:02.401Z,172.72
2023-03-27T12:08:02.298Z,168.72
2023-03-27T12:12:02.395Z,170.78
2023-03-27T12:16:02.602Z,173.73
2023-03-27T12:20:02.721Z,172.84
2023-03-27T12:24:02.892Z,172.82
2023-03-27T12:28:02.999Z,173.53
2023-03-27T12:32:03.152Z,170.60
2023-03-27T12:36:03.171Z,172.71
2023-03-27T12:40:03.222Z,172.94
2023-03-27T12:44:03.289Z,173.90
2023-03-27T12:48:03.470Z,174.75
2023-03-27T12:52:03.423Z,176.03
2023-03-27T12:56:03.395Z,173.76
2023-03-27T13:00:03.518Z,173.44
2023-03-27T13:04:03.586Z,172.87
2023-03-27T13:08:03.520Z,174.55
2023-03-27T13:12:03.538Z,176.44
2023-03-27T13:16:03.740Z,177.17
2023-03-27T13:20:03.740Z,178.58
2023-03-27T13:24:04.006Z,181.87
2023-03-27T13:28:04.140Z,180.47
2023-03-27T13:32:04.331Z,181.97
2023-03-27T13:36:04.563Z,183.15
2023-03-27T13:40:04.497Z,183.54
2023-03-27T13:44:04.479Z,184.23
2023-03-27T13:48:04.384Z,182.71
2023-03-27T13:52:04.329Z,183.82
2023-03-27T13:56:04.281Z,184.86
2023-03-27T14:00:04.341Z,184.15
2023-03-27T14:04:04.263Z,184.41
2023-03-27T14:08:04.174Z,182.97
2023-03-27T14:12:04.151Z,183.89
2023-03-27T14:16:04.246Z,182.91
2023-03-27T14:20:04.215Z,181.77
2023-03-27T14:24:04.167Z,181.37
2023-03-27T14:28:04.160Z,180.41
2023-03-27T14:32:04.139Z,180.38
2023-03-27T14:36:04.224Z,182.40
2023-03-27T14:40:04.044Z,180.89
2023-03-27T14:44:03.970Z,180.55
2023-03-27T14:48:03.966Z,180.65
2023-03-27T14:52:03.918Z,178.86
2023-03-27T14:56:03.872Z,181.32
2023-03-27T15:00:04.073Z,179.30
2023-03-27T15:04:04.256Z,180.25
2023-03-27T15:08:04.476Z,180.71
2023-03-27T15:12:04.713Z,179.71
2023-03-27T15:16:04.900Z,181.10
2023-03-27T15:20:05.064Z,178.79
2023-03-27T15:24:05.286Z,181.66
2023-03-27T15:28:07.006Z,181.61
2023-03-27T15:32:05.452Z,178.18
2023-03-27T15:36:05.443Z,180.32
2023-03-27T15:40:05.376Z,180.40
2023-03-27T15:44:05.335Z,180.05
2023-03-27T15:48:05.340Z,176.63
2023-03-27T15:52:05.241Z,178.67
2023-03-27T15:56:05.266Z,180.41
2023-03-27T16:00:05.209Z,179.22
2023-03-27T16:04:05.265Z,181.38
2023-03-27T16:08:05.068Z,178.70
2023-03-27T16:12:05.324Z,177.26
2023-03-27T16:16:05.356Z,181.24
2023-03-27T16:20:05.249Z,177.45
2023-03-27T16:24:05.182Z,175.74
2023-03-27T16:28:05.199Z,176.60
2023-03-27T16:32:05.092Z,177.16
2023-03-27T16:36:05.122Z,177.20
2023-03-27T16:40:05.066Z,176.60
2023-03-27T16:44:05.007Z,174.02
2023-03-27T16:48:05.077Z,174.68
2023-03-27T16:52:04.992Z,173.61
2023-03-27T16:56:05.216Z,174.82
2023-03-27T17:00:05.524Z,172.10
2023-03-27T17:04:05.566Z,168.67
2023-03-27T17:08:07.401Z,171.04
2023-03-27T17:12:05.978Z,168.16
2023-03-27T17:16:06.053Z,169.63
2023-03-27T17:20:06.388Z,164.31
2023-03-27T17:24:06.173Z,165.69
2023-03-27T17:28:06.206Z,166.24
2023-03-27T17:32:06.381Z,167.29
2023-03-27T17:36:06.223Z,164.92
2023-03-27T17:40:06.221Z,156.65
2023-03-27T17:44:07.533Z,159.14
2023-03-27T17:48:06.272Z,158.38
2023-03-27T17:52:06.205Z,159.01
2023-03-27T17:56:06.231Z,161.35
2023-03-27T18:00:06.500Z,163.18
2023-03-27T18:04:06.215Z,162.41
2023-03-27T18:08:06.191Z,161.94
2023-03-27T18:12:06.096Z,165.93
2023-03-27T18:16:07.133Z,160.44
2023-03-27T18:20:06.108Z,162.54
2023-03-27T18:24:06.067Z,161.19
2023-03-27T18:28:06.100Z,162.32
2023-03-27T18:32:06.065Z,168.93
2023-03-27T18:36:06.098Z,168.76
2023-03-27T18:40:06.112Z,154.57
2023-03-27T18:44:06.118Z,146.85
2023-03-27T18:48:06.161Z,137.44
2023-03-27T18:52:06.184Z,133.91
2023-03-27T18:56:06.272Z,121.37
2023-03-27T19:00:06.314Z,110.94
2023-03-27T19:04:06.457Z,108.51
2023-03-27T19:08:06.509Z,92.07
2023-03-27T19:12:06.603Z,102.69
2023-03-27T19:16:14.037Z,107.31
2023-03-27T19:20:07.567Z,110.75
2023-03-27T19:24:06.563Z,120.07
2023-03-27T19:28:06.529Z,131.23
2023-03-27T19:32:06.445Z,133.81
2023-03-27T19:36:06.855Z,137.40
2023-03-27T19:40:06.388Z,140.24
2023-03-27T19:44:06.444Z,142.93
2023-03-27T19:48:06.490Z,146.43
2023-03-27T19:52:06.766Z,151.90
2023-03-27T19:56:06.587Z,151.12
2023-03-27T20:00:06.677Z,156.44
2023-03-27T20:04:06.761Z,157.11
2023-03-27T20:08:06.824Z,160.95
2023-03-27T20:12:06.904Z,161.19
2023-03-27T20:16:06.999Z,160.89
2023-03-27T20:20:07.056Z,163.30
2023-03-27T20:24:07.190Z,164.50
2023-03-27T20:28:07.292Z,167.94
2023-03-27T20:32:08.810Z,169.04
2023-03-27T20:36:07.374Z,168.27
2023-03-27T20:40:07.519Z,171.13
2023-03-27T20:44:07.537Z,167.00
2023-03-27T20:48:07.734Z,170.53
2023-03-27T20:52:07.793Z,172.22
2023-03-27T20:56:08.039Z,163.78
2023-03-27T21:00:07.922Z,172.96
2023-03-27T21:04:07.929Z,173.08
2023-03-27T21:08:08.045Z,172.20
2023-03-27T21:12:08.148Z,172.70
2023-03-27T21:16:08.278Z,169.82
2023-03-27T21:20:08.864Z,171.82
2023-03-27T21:24:08.528Z,173.32
2023-03-27T21:28:08.641Z,170.19
2023-03-27T21:32:08.760Z,173.82
2023-03-27T21:36:08.946Z,176.54
2023-03-27T21:40:08.954Z,172.36
2023-03-27T21:44:09.109Z,176.22
2023-03-27T21:48:09.268Z,176.78
2023-03-27T21:52:09.321Z,175.34
2023-03-27T21:56:09.446Z,175.34
2023-03-27T22:00:09.606Z,177.80
2023-03-27T22:04:09.743Z,178.85
2023-03-27T22:08:09.879Z,175.16
2023-03-27T22:12:10.083Z,174.23
2023-03-27T22:16:10.311Z,178.56
2023-03-27T22:20:10.382Z,180.54
2023-03-27T22:24:10.584Z,179.95
2023-03-27T22:28:10.776Z,177.91
2023-03-27T22:32:10.955Z,179.95
2023-03-27T22:36:11.235Z,180.15
2023-03-27T22:40:11.322Z,182.02
2023-03-27T22:44:11.512Z,177.48
2023-03-27T22:48:11.682Z,180.44
2023-03-27T22:52:11.980Z,176.23
2023-03-27T22:56:12.105Z,179.43
2023-03-27T23:00:12.270Z,178.92
2023-03-27T23:04:12.500Z,181.02
2023-03-27T23:08:12.715Z,186.41
2023-03-27T23:12:12.924Z,185.80
2023-03-27T23:16:13.174Z,180.96
2023-03-27T23:20:13.298Z,183.92
2023-03-27T23:24:13.517Z,183.48
2023-03-27T23:28:13.495Z,184.09
2023-03-27T23:32:13.680Z,185.61
2023-03-27T23:36:13.579Z,184.15
2023-03-27T23:40:13.422Z,184.87
2023-03-27T23:44:13.359Z,187.42
2023-03-27T23:48:13.286Z,183.74
2023-03-27T23:52:13.301Z,182.86
2023-03-27T23:56:13.197Z,183.75
